createdAt,value
2024-02-29T00:02:18.127Z,100891.00
2024-02-29T00:04:45.249Z,100861.09
2024-02-29T00:07:12.307Z,100884.81
2024-02-29T00:09:39.366Z,100881.22
2024-02-29T00:12:07.021Z,100879.69
2024-02-29T00:14:33.911Z,100884.03
2024-02-29T00:17:00.914Z,100861.78
2024-02-29T00:19:28.460Z,100864.19
2024-02-29T00:21:55.509Z,100877.31
2024-02-29T00:24:22.511Z,100898.44
2024-02-29T00:26:49.586Z,100862.63
2024-02-29T00:29:16.565Z,100832.94
2024-02-29T00:31:44.435Z,100880.84
2024-02-29T00:34:13.385Z,100881.94
2024-02-29T00:36:40.998Z,100889.34
2024-02-29T00:39:12.215Z,100890.63
2024-02-29T00:41:42.793Z,100854.53
2024-02-29T00:44:10.829Z,100880.34
2024-02-29T00:46:41.520Z,100868.97
2024-02-29T00:49:08.969Z,100825.97
2024-02-29T00:51:36.141Z,100858.66
2024-02-29T00:54:03.158Z,100870.81
2024-02-29T00:56:30.201Z,100881.34
2024-02-29T00:58:57.185Z,100862.56
2024-02-29T01:01:24.320Z,100849.47
2024-02-29T01:03:51.408Z,100871.84
2024-02-29T01:06:18.426Z,100873.84
2024-02-29T01:08:45.634Z,100857.91
2024-02-29T01:11:13.177Z,100852.88
2024-02-29T01:13:40.174Z,100850.88
2024-02-29T01:16:07.428Z,100868.22
2024-02-29T01:18:34.687Z,100874.28
2024-02-29T01:21:01.743Z,100863.91
2024-02-29T01:23:28.735Z,100861.91
2024-02-29T01:25:55.786Z,100856.94
2024-02-29T01:28:22.767Z,100847.56
2024-02-29T01:30:50.250Z,100861.81
2024-02-29T01:33:17.283Z,100851.00
2024-02-29T01:35:44.368Z,100838.44
2024-02-29T01:38:11.324Z,100841.25
2024-02-29T01:40:38.457Z,100843.50
2024-02-29T01:43:05.567Z,100842.72
2024-02-29T01:45:32.840Z,100848.66
2024-02-29T01:48:00.037Z,100839.44
2024-02-29T01:50:29.491Z,100839.13
2024-02-29T01:52:56.523Z,100829.34
2024-02-29T01:55:24.081Z,100836.31
2024-02-29T01:57:51.071Z,100840.16
2024-02-29T02:00:18.352Z,100834.28
2024-02-29T02:02:45.883Z,100835.09
2024-02-29T02:05:13.014Z,100821.66
2024-02-29T02:07:39.922Z,100849.06
2024-02-29T02:10:07.860Z,100840.97
2024-02-29T02:12:35.310Z,100848.13
2024-02-29T02:15:02.670Z,100856.38
2024-02-29T02:17:29.994Z,100840.03
2024-02-29T02:19:58.167Z,100842.34
2024-02-29T02:22:25.766Z,100847.59
2024-02-29T02:24:52.767Z,100848.56
2024-02-29T02:27:19.773Z,100836.00
2024-02-29T02:29:46.798Z,100840.38
2024-02-29T02:32:13.771Z,100853.28
2024-02-29T02:34:40.701Z,100853.78
2024-02-29T02:37:07.785Z,100836.78
2024-02-29T02:39:34.888Z,100840.41
2024-02-29T02:42:02.349Z,100827.72
2024-02-29T02:44:29.403Z,100855.81
2024-02-29T02:46:56.366Z,100841.41
2024-02-29T02:49:23.328Z,100838.06
2024-02-29T02:51:50.283Z,100840.75
2024-02-29T02:54:17.312Z,100831.56
2024-02-29T02:56:44.328Z,100841.78
2024-02-29T02:59:11.334Z,100864.50
2024-02-29T03:01:38.373Z,100848.97
2024-02-29T03:04:05.566Z,100827.81
2024-02-29T03:06:32.850Z,100844.94
2024-02-29T03:08:59.890Z,100838.72
2024-02-29T03:11:26.958Z,100864.97
2024-02-29T03:13:53.972Z,100836.06
2024-02-29T03:16:24.340Z,100838.94
2024-02-29T03:18:51.371Z,100838.19
2024-02-29T03:21:18.573Z,100836.09
2024-02-29T03:23:45.966Z,100837.44
2024-02-29T03:26:13.170Z,100839.69
2024-02-29T03:28:40.835Z,100835.09
2024-02-29T03:31:11.809Z,100843.13
2024-02-29T03:33:38.814Z,100838.16
2024-02-29T03:36:05.946Z,100807.69
2024-02-29T03:38:32.959Z,100829.91
2024-02-29T03:40:59.882Z,100822.34
2024-02-29T03:43:26.832Z,100832.69
2024-02-29T03:45:53.924Z,100834.72
2024-02-29T03:48:21.016Z,100846.59
2024-02-29T03:50:47.972Z,100834.53
2024-02-29T03:53:15.008Z,100834.84
2024-02-29T03:55:41.943Z,100821.66
2024-02-29T03:58:08.986Z,100857.78
2024-02-29T04:00:36.224Z,100832.44
2024-02-29T04:03:03.328Z,100823.63
2024-02-29T04:05:30.381Z,100841.50
2024-02-29T04:07:57.454Z,100817.91
2024-02-29T04:10:24.489Z,100819.38
2024-02-29T04:12:51.460Z,100811.91
2024-02-29T04:15:18.550Z,100837.72
2024-02-29T04:17:45.575Z,100813.97
2024-02-29T04:20:12.795Z,100811.16
2024-02-29T04:22:41.142Z,100833.66
2024-02-29T04:25:08.926Z,100836.66
2024-02-29T04:27:35.978Z,100824.66
2024-02-29T04:30:03.084Z,100822.06
2024-02-29T04:32:30.092Z,100811.06
2024-02-29T04:34:57.067Z,100811.31
2024-02-29T04:37:24.446Z,100803.41
2024-02-29T04:39:51.428Z,100781.78
2024-02-29T04:42:18.385Z,100826.09
2024-02-29T04:44:45.562Z,100811.66
2024-02-29T04:47:12.521Z,100809.38
2024-02-29T04:49:39.481Z,100818.91
2024-02-29T04:52:06.759Z,100808.59
2024-02-29T04:54:33.943Z,100776.97
2024-02-29T04:57:00.877Z,100801.44
2024-02-29T04:59:27.849Z,100822.09
2024-02-29T05:01:54.964Z,100795.09
2024-02-29T05:04:22.065Z,100797.69
2024-02-29T05:06:49.250Z,100773.25
2024-02-29T05:09:16.340Z,100812.41
2024-02-29T05:11:43.466Z,100802.13
2024-02-29T05:14:10.394Z,100786.63
2024-02-29T05:16:37.414Z,100804.97
2024-02-29T05:19:04.578Z,100793.34
2024-02-29T05:21:31.878Z,100808.81
2024-02-29T05:23:59.050Z,100798.22
2024-02-29T05:26:26.103Z,100794.88
2024-02-29T05:28:53.050Z,100776.06
2024-02-29T05:31:20.155Z,100793.56
2024-02-29T05:33:47.196Z,100797.19
2024-02-29T05:36:15.840Z,100816.50
2024-02-29T05:38:42.868Z,100829.13
2024-02-29T05:41:09.974Z,100780.41
2024-02-29T05:43:37.019Z,100799.66
2024-02-29T05:46:04.154Z,100826.72
2024-02-29T05:48:31.093Z,100825.22
2024-02-29T05:50:58.097Z,100797.53
2024-02-29T05:53:25.088Z,100806.22
2024-02-29T05:55:52.204Z,100812.09
2024-02-29T05:58:19.385Z,100806.66
2024-02-29T06:00:47.433Z,100802.69
2024-02-29T06:03:14.520Z,100795.81
2024-02-29T06:05:41.597Z,100811.25
2024-02-29T06:08:08.623Z,100793.03
2024-02-29T06:10:35.633Z,100805.13
2024-02-29T06:13:02.782Z,100793.81
2024-02-29T06:15:29.785Z,100781.84
2024-02-29T06:17:56.926Z,100793.78
2024-02-29T06:20:24.009Z,100799.16
2024-02-29T06:22:50.987Z,100803.38
2024-02-29T06:25:18.085Z,100782.34
2024-02-29T06:27:46.202Z,100768.63
2024-02-29T06:30:13.703Z,100782.03
2024-02-29T06:32:40.808Z,100775.88
2024-02-29T06:35:08.682Z,100796.47
2024-02-29T06:37:35.683Z,100798.50
2024-02-29T06:40:02.858Z,100796.75
2024-02-29T06:42:29.944Z,100800.44
2024-02-29T06:44:56.976Z,100801.44
2024-02-29T06:47:23.931Z,100798.34
2024-02-29T06:49:50.929Z,100807.81
2024-02-29T06:52:17.959Z,100805.00
2024-02-29T06:54:45.064Z,100803.09
2024-02-29T06:57:13.268Z,100808.88
2024-02-29T06:59:40.820Z,100808.13
2024-02-29T07:02:07.850Z,100820.09
2024-02-29T07:04:34.954Z,100789.00
2024-02-29T07:07:02.049Z,100805.53
2024-02-29T07:09:29.053Z,100805.06
2024-02-29T07:11:56.044Z,100785.19
2024-02-29T07:14:23.053Z,100759.00
2024-02-29T07:16:50.113Z,100800.34
2024-02-29T07:19:17.168Z,100800.59
2024-02-29T07:21:44.601Z,100807.72
2024-02-29T07:24:11.777Z,100792.66
2024-02-29T07:26:42.244Z,100819.97
2024-02-29T07:29:11.638Z,100787.78
2024-02-29T07:31:42.281Z,100800.16
2024-02-29T07:34:09.274Z,100778.25
2024-02-29T07:36:36.326Z,100811.56
2024-02-29T07:39:06.093Z,100795.88
2024-02-29T07:41:33.056Z,100809.63
2024-02-29T07:44:00.116Z,100797.31
2024-02-29T07:46:27.151Z,100777.91
2024-02-29T07:48:54.148Z,100795.38
2024-02-29T07:51:21.107Z,100801.28
2024-02-29T07:53:48.125Z,100781.16
2024-02-29T07:56:16.188Z,100805.59
2024-02-29T07:58:43.110Z,100795.97
2024-02-29T08:01:10.195Z,100811.38
2024-02-29T08:03:37.540Z,100809.00
2024-02-29T08:06:04.666Z,100809.03
2024-02-29T08:08:31.797Z,100802.84
2024-02-29T08:10:58.838Z,100786.63
2024-02-29T08:13:25.869Z,100779.78
2024-02-29T08:15:53.053Z,100791.75
2024-02-29T08:18:20.261Z,100792.94
2024-02-29T08:20:47.327Z,100770.41
2024-02-29T08:23:15.299Z,100812.88
2024-02-29T08:25:44.086Z,100809.72
2024-02-29T08:28:11.154Z,100786.94
2024-02-29T08:30:38.365Z,100795.91
2024-02-29T08:33:05.566Z,100790.66
2024-02-29T08:35:35.146Z,100784.97
2024-02-29T08:38:08.047Z,100775.88
2024-02-29T08:40:37.688Z,100772.25
2024-02-29T08:43:04.853Z,100794.31
2024-02-29T08:45:31.888Z,100811.31
2024-02-29T08:47:58.906Z,100771.78
2024-02-29T08:50:25.908Z,100796.56
2024-02-29T08:52:53.063Z,100784.78
2024-02-29T08:55:20.084Z,100771.38
2024-02-29T08:57:47.204Z,100749.44
2024-02-29T09:00:17.543Z,100760.38
2024-02-29T09:02:44.557Z,100781.69
2024-02-29T09:05:11.674Z,100791.00
2024-02-29T09:07:38.787Z,100764.38
2024-02-29T09:10:06.641Z,100774.47
2024-02-29T09:12:33.786Z,100795.81
2024-02-29T09:15:00.834Z,100770.81
2024-02-29T09:17:28.043Z,100774.69
2024-02-29T09:19:55.018Z,100763.78
2024-02-29T09:22:21.968Z,100774.78
2024-02-29T09:24:49.278Z,100792.63
2024-02-29T09:27:16.928Z,100787.38
2024-02-29T09:29:43.888Z,100782.34
2024-02-29T09:32:10.927Z,100776.19
2024-02-29T09:34:39.821Z,100761.63
2024-02-29T09:37:08.663Z,100751.19
2024-02-29T09:39:35.814Z,100777.84
2024-02-29T09:44:33.825Z,100739.81
2024-02-29T09:47:00.762Z,100753.97
2024-02-29T09:49:27.951Z,100754.06
2024-02-29T09:51:55.027Z,100730.91
2024-02-29T09:54:23.272Z,100735.28
2024-02-29T09:56:50.272Z,100727.19
2024-02-29T09:59:17.913Z,100732.84
2024-02-29T10:01:49.147Z,100739.66
2024-02-29T10:04:16.588Z,100722.94
2024-02-29T10:06:43.675Z,100721.06
2024-02-29T10:09:11.184Z,100730.63
2024-02-29T10:11:41.965Z,100735.25
2024-02-29T10:14:25.712Z,100746.50
2024-02-29T10:16:54.470Z,100717.63
2024-02-29T10:19:22.789Z,100738.66
2024-02-29T10:21:52.224Z,100732.94
2024-02-29T10:24:23.162Z,100718.59
2024-02-29T10:26:50.556Z,100735.91
2024-02-29T10:29:17.551Z,100716.78
2024-02-29T10:31:44.770Z,100739.06
2024-02-29T10:34:12.849Z,100725.25
2024-02-29T10:36:40.645Z,100718.34
2024-02-29T10:39:07.755Z,100722.03
2024-02-29T10:41:37.784Z,100731.41
2024-02-29T10:44:08.306Z,100707.84
2024-02-29T10:46:37.977Z,100695.91
2024-02-29T10:49:10.406Z,100731.97
2024-02-29T10:51:51.798Z,100714.00
2024-02-29T10:54:24.913Z,100734.34
2024-02-29T10:56:56.850Z,100692.19
2024-02-29T10:59:26.665Z,100688.59
2024-02-29T11:01:54.852Z,100729.72
2024-02-29T11:04:22.020Z,100711.44
2024-02-29T11:06:50.219Z,100722.31
2024-02-29T11:09:25.419Z,100738.13
2024-02-29T11:12:09.340Z,100734.75
2024-02-29T11:14:36.925Z,100699.69
2024-02-29T11:17:05.475Z,100703.59
2024-02-29T11:19:42.321Z,100708.44
2024-02-29T11:22:17.678Z,100722.19
2024-02-29T11:24:45.495Z,100701.00
2024-02-29T11:27:13.737Z,100713.09
2024-02-29T11:29:40.839Z,100723.50
2024-02-29T11:32:09.091Z,100691.19
2024-02-29T11:34:37.766Z,100726.25
2024-02-29T11:37:06.678Z,100690.78
2024-02-29T11:39:33.706Z,100696.34
2024-02-29T11:42:03.944Z,100730.50
2024-02-29T11:44:32.080Z,100701.69
2024-02-29T11:46:59.408Z,100708.81
2024-02-29T11:49:27.369Z,100716.31
2024-02-29T11:51:56.521Z,100706.22
2024-02-29T11:54:26.759Z,100705.00
2024-02-29T11:56:55.604Z,100713.09
2024-02-29T11:59:24.368Z,100715.09
2024-02-29T12:01:51.628Z,100700.69
2024-02-29T12:04:18.803Z,100717.50
2024-02-29T12:06:46.669Z,100719.47
2024-02-29T12:09:14.053Z,100692.28
2024-02-29T12:11:42.781Z,100727.34
2024-02-29T12:14:10.581Z,100727.41
2024-02-29T12:16:39.504Z,100694.63
2024-02-29T12:19:07.555Z,100711.91
2024-02-29T12:21:38.186Z,100697.53
2024-02-29T12:24:10.267Z,100706.41
2024-02-29T12:26:37.628Z,100703.88
2024-02-29T12:29:07.356Z,100696.53
2024-02-29T12:31:35.275Z,100711.53
2024-02-29T12:34:03.037Z,100725.31
2024-02-29T12:36:30.603Z,100699.50
2024-02-29T12:38:57.858Z,100721.53
2024-02-29T12:41:25.640Z,100670.38
2024-02-29T12:43:54.240Z,100702.03
2024-02-29T12:46:21.530Z,100702.13
2024-02-29T12:48:48.661Z,100688.03
2024-02-29T12:51:15.998Z,100694.97
2024-02-29T12:53:42.969Z,100695.53
2024-02-29T12:56:10.328Z,100666.75
2024-02-29T12:58:37.288Z,100717.78
2024-02-29T13:01:04.578Z,100712.47
2024-02-29T13:03:31.646Z,100691.69
2024-02-29T13:05:58.792Z,100696.03
2024-02-29T13:08:25.817Z,100698.00
2024-02-29T13:10:52.840Z,100697.47
2024-02-29T13:13:19.843Z,100696.72
2024-02-29T13:15:47.085Z,100681.97
2024-02-29T13:18:14.108Z,100703.91
2024-02-29T13:20:41.224Z,100703.31
2024-02-29T13:23:11.405Z,100677.84
2024-02-29T13:25:38.473Z,100702.09
2024-02-29T13:28:05.795Z,100689.66
2024-02-29T13:30:32.920Z,100655.94
2024-02-29T13:32:59.911Z,100681.56
2024-02-29T13:35:27.028Z,100691.22
2024-02-29T13:37:54.075Z,100691.38
2024-02-29T13:40:21.169Z,100681.56
2024-02-29T13:42:48.964Z,100679.25
2024-02-29T13:45:16.155Z,100674.19
2024-02-29T13:47:52.103Z,100666.97
2024-02-29T13:50:19.952Z,100690.59
2024-02-29T13:52:47.016Z,100670.34
2024-02-29T13:55:14.694Z,100697.19
2024-02-29T13:57:44.504Z,100684.28
2024-02-29T14:00:13.338Z,100689.66
2024-02-29T14:02:43.466Z,100675.25
2024-02-29T14:05:13.334Z,100678.00
2024-02-29T14:07:40.369Z,100700.97
2024-02-29T14:10:10.611Z,100708.91
2024-02-29T14:12:39.145Z,100683.63
2024-02-29T14:15:06.970Z,100671.47
2024-02-29T14:17:37.383Z,100684.47
2024-02-29T14:20:07.015Z,100669.06
2024-02-29T14:22:35.095Z,100662.44
2024-02-29T14:25:04.806Z,100683.81
2024-02-29T14:27:32.164Z,100693.34
2024-02-29T14:29:59.069Z,100688.91
2024-02-29T14:32:26.022Z,100680.31
2024-02-29T14:34:52.960Z,100663.63
2024-02-29T14:37:22.754Z,100663.63
2024-02-29T14:39:50.549Z,100682.19
2024-02-29T14:42:18.476Z,100647.69
2024-02-29T14:44:48.919Z,100664.88
2024-02-29T14:47:20.694Z,100669.09
2024-02-29T14:49:50.483Z,100665.47
2024-02-29T14:52:18.679Z,100666.22
2024-02-29T14:54:45.800Z,100672.13
2024-02-29T14:57:15.592Z,100653.16
2024-02-29T14:59:43.017Z,100648.84
2024-02-29T15:02:13.588Z,100674.06
2024-02-29T15:04:40.626Z,100661.66
2024-02-29T15:07:08.403Z,100694.44
2024-02-29T15:09:37.058Z,100678.63
2024-02-29T15:12:04.620Z,100654.38
2024-02-29T15:14:31.702Z,100690.69
2024-02-29T15:16:58.679Z,100677.03
2024-02-29T15:19:34.905Z,100673.91
2024-02-29T15:22:03.643Z,100683.53
2024-02-29T15:24:34.449Z,100665.66
2024-02-29T15:27:04.666Z,100705.06
2024-02-29T15:29:36.754Z,100685.72
2024-02-29T15:32:04.287Z,100670.31
2024-02-29T15:34:32.598Z,100679.22
2024-02-29T15:36:59.678Z,100677.78
2024-02-29T15:39:26.760Z,100691.22
2024-02-29T15:41:54.974Z,100668.88
2024-02-29T15:44:22.017Z,100689.75
2024-02-29T15:46:49.497Z,100660.31
2024-02-29T15:49:16.539Z,100691.03
2024-02-29T15:51:43.695Z,100676.22
2024-02-29T15:54:10.800Z,100677.00
2024-02-29T15:56:37.934Z,100659.09
2024-02-29T15:59:05.330Z,100680.53
2024-02-29T16:01:32.716Z,100665.06
2024-02-29T16:04:00.172Z,100670.66
2024-02-29T16:06:27.249Z,100650.56
2024-02-29T16:08:54.308Z,100645.88
2024-02-29T16:11:22.044Z,100661.16
2024-02-29T16:13:53.975Z,100684.31
2024-02-29T16:16:21.405Z,100664.50
2024-02-29T16:18:48.403Z,100661.34
2024-02-29T16:21:15.530Z,100662.66
2024-02-29T16:23:42.627Z,100657.47
2024-02-29T16:26:09.684Z,100646.34
2024-02-29T16:28:38.738Z,100668.03
2024-02-29T16:31:06.212Z,100655.47
2024-02-29T16:33:34.951Z,100653.06
2024-02-29T16:36:02.771Z,100656.50
2024-02-29T16:38:30.149Z,100636.69
2024-02-29T16:40:57.272Z,100652.72
2024-02-29T16:43:24.247Z,100635.34
2024-02-29T16:45:52.526Z,100662.03
2024-02-29T16:48:23.594Z,100654.00
2024-02-29T16:50:50.969Z,100643.38
2024-02-29T16:53:18.038Z,100647.03
2024-02-29T16:55:45.021Z,100621.47
2024-02-29T16:58:13.063Z,100648.22
2024-02-29T17:00:40.197Z,100621.16
2024-02-29T17:03:07.367Z,100648.59
2024-02-29T17:05:34.414Z,100634.59
2024-02-29T17:08:01.812Z,100622.41
2024-02-29T17:10:29.143Z,100640.28
2024-02-29T17:12:56.197Z,100635.25
2024-02-29T17:15:23.156Z,100641.38
2024-02-29T17:17:50.204Z,100619.13
2024-02-29T17:20:17.341Z,100641.03
2024-02-29T17:22:44.446Z,100606.25
2024-02-29T17:25:11.504Z,100609.34
2024-02-29T17:27:38.690Z,100608.78
2024-02-29T17:30:06.261Z,100642.69
2024-02-29T17:32:33.392Z,100649.84
2024-02-29T17:35:00.412Z,100617.25
2024-02-29T17:37:30.285Z,100634.69
2024-02-29T17:39:57.930Z,100604.88
2024-02-29T17:42:24.959Z,100620.22
2024-02-29T17:44:52.366Z,100652.41
2024-02-29T17:47:19.326Z,100637.53
2024-02-29T17:49:46.344Z,100626.88
2024-02-29T17:52:13.296Z,100637.81
2024-02-29T17:54:40.364Z,100636.53
2024-02-29T17:57:07.409Z,100651.22
2024-02-29T17:59:34.441Z,100622.28
2024-02-29T18:02:01.924Z,100639.50
2024-02-29T18:04:29.574Z,100626.63
2024-02-29T18:06:56.636Z,100639.19
2024-02-29T18:09:23.686Z,100614.41
2024-02-29T18:11:50.842Z,100645.06
2024-02-29T18:14:17.802Z,100629.69
2024-02-29T18:16:44.833Z,100594.91
2024-02-29T18:19:12.096Z,100644.94
2024-02-29T18:21:42.875Z,100637.59
2024-02-29T18:24:10.360Z,100641.78
2024-02-29T18:26:38.139Z,100640.25
2024-02-29T18:29:05.285Z,100632.63
2024-02-29T18:31:33.242Z,100646.91
2024-02-29T18:34:01.639Z,100645.44
2024-02-29T18:36:28.793Z,100638.78
2024-02-29T18:38:56.384Z,100629.53
2024-02-29T18:41:23.418Z,100653.81
2024-02-29T18:43:52.101Z,100658.75
2024-02-29T18:46:19.211Z,100632.19
2024-02-29T18:48:46.315Z,100634.78
2024-02-29T18:51:13.291Z,100640.41
2024-02-29T18:53:40.268Z,100624.66
2024-02-29T18:56:07.531Z,100611.56
2024-02-29T18:58:34.539Z,100629.69
2024-02-29T19:01:01.603Z,100645.72
2024-02-29T19:03:28.600Z,100618.16
2024-02-29T19:05:55.604Z,100630.66
2024-02-29T19:08:22.631Z,100640.47
2024-02-29T19:10:49.611Z,100626.47
2024-02-29T19:13:17.459Z,100641.56
2024-02-29T19:15:44.567Z,100641.94
2024-02-29T19:18:11.578Z,100640.13
2024-02-29T19:20:39.802Z,100653.28
2024-02-29T19:23:06.791Z,100648.50
2024-02-29T19:25:33.872Z,100538.00
2024-02-29T19:28:01.011Z,100642.16
2024-02-29T19:30:28.291Z,100663.00
2024-02-29T19:32:56.662Z,100615.41
2024-02-29T19:35:23.748Z,100611.47
2024-02-29T19:37:50.722Z,100629.81
2024-02-29T19:40:18.796Z,100608.56
2024-02-29T19:42:45.948Z,100625.91
2024-02-29T19:45:13.186Z,100623.31
2024-02-29T19:47:41.879Z,100611.38
2024-02-29T19:50:11.804Z,100634.69
2024-02-29T19:52:38.948Z,100651.66
2024-02-29T19:55:06.686Z,100637.34
2024-02-29T19:57:33.998Z,100612.91
2024-02-29T20:00:01.022Z,100649.00
2024-02-29T20:02:28.083Z,100640.38
2024-02-29T20:04:55.261Z,100627.28
2024-02-29T20:07:22.314Z,100630.09
2024-02-29T20:09:49.999Z,100645.50
2024-02-29T20:12:17.183Z,100625.22
2024-02-29T20:14:44.948Z,100642.34
2024-02-29T20:17:12.012Z,100624.06
2024-02-29T20:19:39.173Z,100632.84
2024-02-29T20:22:06.272Z,100650.28
2024-02-29T20:24:33.278Z,100635.63
2024-02-29T20:27:00.295Z,100622.94
2024-02-29T20:29:27.385Z,100640.19
2024-02-29T20:31:54.392Z,100616.91
2024-02-29T20:34:22.410Z,100644.22
2024-02-29T20:36:49.602Z,100662.03
2024-02-29T20:39:16.621Z,100661.16
2024-02-29T20:41:43.684Z,100635.94
2024-02-29T20:44:10.696Z,100647.28
2024-02-29T20:46:37.921Z,100624.06
2024-02-29T20:49:05.636Z,100630.53
2024-02-29T20:51:32.657Z,100645.53
2024-02-29T20:54:00.175Z,100651.47
2024-02-29T20:56:27.417Z,100644.88
2024-02-29T20:58:54.399Z,100651.47
2024-02-29T21:01:21.433Z,100656.66
2024-02-29T21:03:48.535Z,100647.84
2024-02-29T21:06:15.553Z,100634.31
2024-02-29T21:08:42.801Z,100649.53
2024-02-29T21:11:09.929Z,100642.84
2024-02-29T21:13:39.869Z,100659.91
2024-02-29T21:16:07.215Z,100638.78
2024-02-29T21:18:34.165Z,100625.50
2024-02-29T21:21:01.097Z,100661.78
2024-02-29T21:23:28.149Z,100641.25
2024-02-29T21:25:55.092Z,100649.34
2024-02-29T21:28:22.224Z,100651.97
2024-02-29T21:30:49.447Z,100647.03
2024-02-29T21:33:16.867Z,100645.19
2024-02-29T21:35:44.389Z,100628.44
2024-02-29T21:38:11.412Z,100645.97
2024-02-29T21:40:38.910Z,100651.94
2024-02-29T21:43:06.075Z,100629.56
2024-02-29T21:45:33.135Z,100661.41
2024-02-29T21:48:00.224Z,100638.78
2024-02-29T21:50:27.258Z,100650.59
2024-02-29T21:52:54.232Z,100644.53
2024-02-29T21:55:22.410Z,100652.59
2024-02-29T21:57:49.606Z,100661.72
2024-02-29T22:00:16.895Z,100654.66
2024-02-29T22:02:43.945Z,100665.56
2024-02-29T22:05:11.096Z,100657.59
2024-02-29T22:07:38.154Z,100646.66
2024-02-29T22:10:05.623Z,100644.00
2024-02-29T22:12:32.712Z,100640.03
2024-02-29T22:14:59.690Z,100651.19
2024-02-29T22:17:26.694Z,100660.53
2024-02-29T22:19:53.678Z,100650.72
2024-02-29T22:22:20.704Z,100652.59
2024-02-29T22:24:47.696Z,100651.94
2024-02-29T22:27:14.715Z,100625.28
2024-02-29T22:29:41.710Z,100617.84
2024-02-29T22:32:09.318Z,100657.53
2024-02-29T22:34:36.280Z,100645.97
2024-02-29T22:37:03.332Z,100633.09
2024-02-29T22:39:30.353Z,100635.63
2024-02-29T22:42:01.787Z,100652.47
2024-02-29T22:44:30.347Z,100628.31
2024-02-29T22:46:57.375Z,100634.25
2024-02-29T22:49:24.890Z,100651.50
2024-02-29T22:51:52.252Z,100645.13
2024-02-29T22:54:19.475Z,100638.88
2024-02-29T22:56:46.518Z,100651.03
2024-02-29T22:59:13.640Z,100643.03
2024-02-29T23:01:40.813Z,100651.09
2024-02-29T23:04:07.871Z,100628.72
2024-02-29T23:06:36.116Z,100629.00
2024-02-29T23:09:03.497Z,100635.78
2024-02-29T23:11:30.547Z,100664.94
2024-02-29T23:13:57.618Z,100649.94
2024-02-29T23:16:24.789Z,100632.94
2024-02-29T23:18:51.900Z,100659.81
2024-02-29T23:21:18.873Z,100642.22
2024-02-29T23:23:45.917Z,100640.56
2024-02-29T23:26:12.893Z,100658.84
2024-02-29T23:28:39.975Z,100654.16
2024-02-29T23:31:06.911Z,100645.56
2024-02-29T23:33:33.944Z,100635.41
2024-02-29T23:36:00.938Z,100645.56
2024-02-29T23:38:28.025Z,100650.84
2024-02-29T23:40:54.993Z,100667.03
2024-02-29T23:43:22.138Z,100732.53
2024-02-29T23:45:49.186Z,100630.56
2024-02-29T23:48:16.409Z,100645.47
2024-02-29T23:50:43.440Z,100641.59
2024-02-29T23:53:10.490Z,100642.28
2024-02-29T23:55:37.490Z,100643.28
2024-02-29T23:58:04.764Z,100658.88
